createdAt,value
2019-02-21T00:00:57.811Z,93.62
2019-02-21T00:01:57.905Z,93.78
2019-02-21T00:02:57.793Z,93.47
2019-02-21T00:03:57.786Z,93.68
2019-02-21T00:04:57.767Z,93.68
2019-02-21T00:05:57.755Z,93.30
2019-02-21T00:06:57.765Z,93.78
2019-02-21T00:07:57.821Z,93.78
2019-02-21T00:08:57.775Z,93.78
2019-02-21T00:09:57.727Z,94.20
2019-02-21T00:10:57.713Z,93.88
2019-02-21T00:11:57.690Z,93.47
2019-02-21T00:12:57.694Z,93.32
2019-02-21T00:13:57.713Z,93.12
2019-02-21T00:14:57.665Z,92.90
2019-02-21T00:15:57.644Z,92.90
2019-02-21T00:16:57.646Z,92.84
2019-02-21T00:17:57.635Z,92.94
2019-02-21T00:18:57.614Z,92.84
2019-02-21T00:19:57.664Z,93.05
2019-02-21T00:20:57.597Z,93.05
2019-02-21T00:21:57.644Z,93.12
2019-02-21T00:22:57.581Z,92.94
2019-02-21T00:23:57.562Z,93.05
2019-02-21T00:24:57.633Z,93.26
2019-02-21T00:25:57.568Z,93.16
2019-02-21T00:26:57.530Z,93.26
2019-02-21T00:27:57.509Z,93.57
2019-02-21T00:28:57.515Z,93.74
2019-02-21T00:29:57.561Z,93.68
2019-02-21T00:30:57.499Z,93.68
2019-02-21T00:31:57.532Z,93.95
2019-02-21T00:32:57.564Z,94.40
2019-02-21T00:33:57.455Z,94.26
2019-02-21T00:35:00.327Z,94.05
2019-02-21T00:35:57.426Z,94.01
2019-02-21T00:36:57.426Z,93.84
2019-02-21T00:37:57.438Z,93.70
2019-02-21T00:38:57.407Z,93.22
2019-02-21T00:39:57.404Z,92.80
2019-02-21T00:40:57.386Z,92.69
2019-02-21T00:41:57.395Z,92.38
2019-02-21T00:42:57.352Z,92.69
2019-02-21T00:43:57.511Z,92.59
2019-02-21T00:44:57.332Z,92.80
2019-02-21T00:45:57.389Z,92.49
2019-02-21T00:46:57.310Z,92.18
2019-02-21T00:47:57.301Z,92.69
2019-02-21T00:48:57.390Z,92.49
2019-02-21T00:49:57.303Z,92.69
2019-02-21T00:50:57.273Z,92.28
2019-02-21T00:51:57.257Z,92.38
2019-02-21T00:52:57.251Z,92.28
2019-02-21T00:53:57.227Z,92.43
2019-02-21T00:54:57.226Z,91.91
2019-02-21T00:55:57.292Z,91.70
2019-02-21T00:56:57.204Z,92.28
2019-02-21T00:57:57.183Z,92.43
2019-02-21T00:58:57.180Z,92.22
2019-02-21T00:59:57.169Z,92.11
2019-02-21T01:00:57.185Z,91.91
2019-02-21T01:01:57.222Z,92.99
2019-02-21T01:02:57.134Z,92.47
2019-02-21T01:03:57.133Z,92.68
2019-02-21T01:04:57.121Z,92.99
2019-02-21T01:05:57.136Z,92.88
2019-02-21T01:06:57.104Z,93.41
2019-02-21T01:07:57.139Z,93.30
2019-02-21T01:08:57.128Z,93.41
2019-02-21T01:09:57.053Z,93.30
2019-02-21T01:10:57.053Z,93.62
2019-02-21T01:11:57.041Z,93.93
2019-02-21T01:12:57.039Z,93.41
2019-02-21T01:13:57.066Z,93.62
2019-02-21T01:14:57.077Z,93.51
2019-02-21T01:15:56.992Z,93.62
2019-02-21T01:16:57.000Z,94.03
2019-02-21T01:17:56.967Z,93.93
2019-02-21T01:18:56.958Z,94.34
2019-02-21T01:19:56.993Z,94.24
2019-02-21T01:20:56.934Z,94.55
2019-02-21T01:21:56.919Z,94.71
2019-02-21T01:22:56.918Z,95.13
2019-02-21T01:23:56.903Z,94.71
2019-02-21T01:24:56.926Z,94.78
2019-02-21T01:25:56.940Z,94.20
2019-02-21T01:26:56.879Z,94.15
2019-02-21T01:27:56.876Z,94.09
2019-02-21T01:28:56.853Z,93.74
2019-02-21T01:29:56.900Z,93.43
2019-02-21T01:30:57.358Z,93.01
2019-02-21T01:31:56.861Z,93.12
2019-02-21T01:32:56.817Z,93.22
2019-02-21T01:33:56.809Z,93.22
2019-02-21T01:34:56.786Z,92.86
2019-02-21T01:35:56.839Z,93.32
2019-02-21T01:36:56.757Z,93.07
2019-02-21T01:37:56.798Z,93.28
2019-02-21T01:38:56.760Z,93.28
2019-02-21T01:39:56.727Z,93.07
2019-02-21T01:40:56.716Z,92.72
2019-02-21T01:41:56.714Z,92.72
2019-02-21T01:42:56.691Z,92.51
2019-02-21T01:43:56.732Z,92.82
2019-02-21T01:44:56.666Z,92.51
2019-02-21T01:45:56.665Z,92.16
2019-02-21T01:46:56.658Z,92.16
2019-02-21T01:47:56.664Z,92.57
2019-02-21T01:48:56.629Z,92.47
2019-02-21T01:49:56.661Z,92.11
2019-02-21T01:50:56.629Z,91.33
2019-02-21T01:51:56.595Z,91.18
2019-02-21T01:52:56.595Z,91.18
2019-02-21T01:53:56.569Z,90.97
2019-02-21T01:54:56.585Z,91.60
2019-02-21T01:55:56.592Z,91.39
2019-02-21T01:56:56.547Z,91.60
2019-02-21T01:57:56.530Z,91.49
2019-02-21T01:58:56.514Z,91.91
2019-02-21T01:59:56.504Z,92.43
2019-02-21T02:01:07.603Z,92.80
2019-02-21T02:01:57.583Z,92.07
2019-02-21T02:02:56.480Z,91.55
2019-02-21T02:03:56.472Z,91.20
2019-02-21T02:04:56.447Z,90.68
2019-02-21T02:05:56.433Z,90.26
2019-02-21T02:06:56.429Z,90.44
2019-02-21T02:07:56.453Z,90.68
2019-02-21T02:08:56.436Z,90.53
2019-02-21T02:09:56.413Z,90.23
2019-02-21T02:10:56.389Z,90.02
2019-02-21T02:11:56.386Z,89.98
2019-02-21T02:12:56.361Z,90.19
2019-02-21T02:13:56.503Z,90.29
2019-02-21T02:14:56.382Z,90.29
2019-02-21T02:15:56.328Z,89.87
2019-02-21T02:16:56.316Z,89.87
2019-02-21T02:17:56.306Z,89.46
2019-02-21T02:18:56.300Z,89.46
2019-02-21T02:19:56.310Z,89.42
2019-02-21T02:20:56.274Z,89.32
2019-02-21T02:21:56.270Z,89.32
2019-02-21T02:22:56.247Z,89.32
2019-02-21T02:23:56.261Z,89.32
2019-02-21T02:24:56.327Z,89.22
2019-02-21T02:25:56.308Z,89.01
2019-02-21T02:26:56.205Z,88.70
2019-02-21T02:27:56.195Z,88.90
2019-02-21T02:28:56.182Z,88.18
2019-02-21T02:29:56.205Z,89.01
2019-02-21T02:30:56.165Z,88.76
2019-02-21T02:31:56.190Z,88.59
2019-02-21T02:32:56.148Z,89.11
2019-02-21T02:33:56.144Z,88.45
2019-02-21T02:34:56.133Z,88.70
2019-02-21T02:35:56.109Z,89.17
2019-02-21T02:36:56.097Z,89.07
2019-02-21T02:37:56.133Z,88.55
2019-02-21T02:38:56.072Z,88.65
2019-02-21T02:39:56.092Z,88.86
2019-02-21T02:40:56.069Z,88.55
2019-02-21T02:41:56.083Z,88.82
2019-02-21T02:42:56.067Z,88.92
2019-02-21T02:43:56.050Z,88.31
2019-02-21T02:44:56.034Z,88.31
2019-02-21T02:45:56.015Z,87.89
2019-02-21T02:46:55.983Z,88.20
2019-02-21T02:47:55.996Z,87.89
2019-02-21T02:48:55.971Z,87.99
2019-02-21T02:49:56.011Z,87.89
2019-02-21T02:50:55.944Z,88.41
2019-02-21T02:51:55.935Z,88.20
2019-02-21T02:52:55.939Z,88.71
2019-02-21T02:53:55.915Z,88.61
2019-02-21T02:54:55.971Z,88.61
2019-02-21T02:55:55.947Z,87.74
2019-02-21T02:56:55.881Z,87.85
2019-02-21T02:57:55.858Z,87.54
2019-02-21T02:58:55.917Z,87.44
2019-02-21T02:59:55.890Z,86.61
2019-02-21T03:00:55.838Z,86.82
2019-02-21T03:01:55.848Z,87.44
2019-02-21T03:02:55.818Z,87.65
2019-02-21T03:03:55.797Z,87.74
2019-02-21T03:04:55.794Z,87.54
2019-02-21T03:05:55.784Z,87.74
2019-02-21T03:06:55.760Z,87.13
2019-02-21T03:07:55.807Z,87.02
2019-02-21T03:08:55.744Z,86.82
2019-02-21T03:09:55.741Z,86.78
2019-02-21T03:10:55.751Z,86.98
2019-02-21T03:11:55.715Z,86.88
2019-02-21T03:12:55.740Z,86.94
2019-02-21T03:13:55.727Z,86.88
2019-02-21T03:14:55.676Z,86.36
2019-02-21T03:15:55.673Z,86.43
2019-02-21T03:16:55.654Z,86.43
2019-02-21T03:17:55.640Z,86.47
2019-02-21T03:18:55.660Z,86.57
2019-02-21T03:19:55.672Z,86.32
2019-02-21T03:20:55.623Z,86.05
2019-02-21T03:21:55.629Z,86.12
2019-02-21T03:22:55.618Z,85.91
2019-02-21T03:23:55.575Z,85.81
2019-02-21T03:24:55.575Z,85.81
2019-02-21T03:25:55.631Z,85.91
2019-02-21T03:26:55.553Z,85.81
2019-02-21T03:27:55.556Z,85.81
2019-02-21T03:28:55.554Z,86.12
2019-02-21T03:29:55.519Z,86.22
2019-02-21T03:30:55.550Z,85.71
2019-02-21T03:31:56.251Z,85.91
2019-02-21T03:32:55.494Z,85.71
2019-02-21T03:33:55.491Z,85.91
2019-02-21T03:34:55.462Z,85.91
2019-02-21T03:35:55.462Z,85.50
2019-02-21T03:36:55.458Z,85.81
2019-02-21T03:37:55.460Z,86.02
2019-02-21T03:38:55.466Z,85.81
2019-02-21T03:39:55.411Z,85.30
2019-02-21T03:40:55.392Z,85.39
2019-02-21T03:41:55.378Z,85.39
2019-02-21T03:42:55.373Z,85.60
2019-02-21T03:43:55.455Z,85.30
2019-02-21T03:44:55.379Z,85.60
2019-02-21T03:45:55.338Z,85.54
2019-02-21T03:46:55.331Z,85.64
2019-02-21T03:47:55.331Z,85.39
2019-02-21T03:48:55.320Z,85.71
2019-02-21T03:49:55.323Z,85.44
2019-02-21T03:50:55.284Z,85.75
2019-02-21T03:51:55.270Z,85.54
2019-02-21T03:52:55.274Z,85.64
2019-02-21T03:53:55.255Z,85.54
2019-02-21T03:54:55.234Z,85.54
2019-02-21T03:55:55.344Z,85.44
2019-02-21T03:56:55.211Z,85.13
2019-02-21T03:57:55.205Z,85.13
2019-02-21T03:58:55.184Z,85.13
2019-02-21T03:59:55.199Z,85.02
2019-02-21T04:00:55.175Z,85.54
2019-02-21T04:02:04.721Z,85.44
2019-02-21T04:02:56.162Z,85.95
2019-02-21T04:03:55.136Z,86.26
2019-02-21T04:04:55.129Z,86.51
2019-02-21T04:05:55.122Z,86.30
2019-02-21T04:06:55.137Z,86.20
2019-02-21T04:07:55.125Z,86.61
2019-02-21T04:08:55.108Z,86.71
2019-02-21T04:09:55.105Z,86.30
2019-02-21T04:10:55.074Z,86.51
2019-02-21T04:11:55.057Z,86.82
2019-02-21T04:12:55.042Z,86.47
2019-02-21T04:13:55.126Z,86.30
2019-02-21T04:14:55.033Z,86.47
2019-02-21T04:15:55.005Z,86.20
2019-02-21T04:16:55.002Z,86.30
2019-02-21T04:17:55.000Z,86.20
2019-02-21T04:18:54.973Z,86.05
2019-02-21T04:19:54.992Z,85.78
2019-02-21T04:20:54.967Z,85.85
2019-02-21T04:21:54.950Z,85.95
2019-02-21T04:22:54.928Z,85.44
2019-02-21T04:23:54.921Z,85.54
2019-02-21T04:24:55.112Z,85.44
2019-02-21T04:25:54.949Z,85.33
2019-02-21T04:26:54.905Z,85.44
2019-02-21T04:27:54.881Z,85.54
2019-02-21T04:28:54.879Z,85.44
2019-02-21T04:29:54.856Z,85.44
2019-02-21T04:30:54.847Z,85.75
2019-02-21T04:31:54.883Z,85.54
2019-02-21T04:32:54.815Z,85.75
2019-02-21T04:33:54.818Z,86.05
2019-02-21T04:34:54.792Z,85.95
2019-02-21T04:35:54.782Z,86.16
2019-02-21T04:36:54.774Z,85.85
2019-02-21T04:37:54.797Z,86.57
2019-02-21T04:38:54.751Z,86.20
2019-02-21T04:39:54.745Z,86.05
2019-02-21T04:40:54.733Z,86.10
2019-02-21T04:41:54.792Z,86.36
2019-02-21T04:42:54.720Z,86.36
2019-02-21T04:43:54.772Z,86.20
2019-02-21T04:44:54.831Z,86.16
2019-02-21T04:45:54.773Z,86.30
2019-02-21T04:46:54.696Z,86.26
2019-02-21T04:47:54.662Z,86.51
2019-02-21T04:48:54.641Z,86.51
2019-02-21T04:49:54.676Z,86.51
2019-02-21T04:50:54.668Z,86.20
2019-02-21T04:51:54.609Z,86.51
2019-02-21T04:52:54.605Z,86.41
2019-02-21T04:53:54.589Z,86.30
2019-02-21T04:54:54.641Z,86.10
2019-02-21T04:55:54.605Z,86.20
2019-02-21T04:56:54.562Z,86.20
2019-02-21T04:57:54.542Z,86.41
2019-02-21T04:58:54.602Z,86.30
2019-02-21T04:59:54.537Z,86.44
2019-02-21T05:00:54.504Z,86.96
2019-02-21T05:01:54.604Z,86.96
2019-02-21T05:02:54.494Z,86.65
2019-02-21T05:03:54.471Z,86.65
2019-02-21T05:04:54.482Z,86.96
2019-02-21T05:05:54.536Z,86.96
2019-02-21T05:06:54.439Z,86.96
2019-02-21T05:07:54.471Z,87.27
2019-02-21T05:08:54.417Z,87.17
2019-02-21T05:09:58.136Z,86.76
2019-02-21T05:10:54.403Z,87.07
2019-02-21T05:11:54.422Z,86.90
2019-02-21T05:12:54.373Z,87.41
2019-02-21T05:13:54.432Z,87.48
2019-02-21T05:14:54.354Z,87.21
2019-02-21T05:15:54.341Z,87.00
2019-02-21T05:16:54.355Z,86.90
2019-02-21T05:17:54.353Z,87.07
2019-02-21T05:18:54.384Z,87.21
2019-02-21T05:19:54.335Z,86.86
2019-02-21T05:20:54.285Z,87.00
2019-02-21T05:21:54.285Z,86.79
2019-02-21T05:22:54.272Z,87.10
2019-02-21T05:23:54.268Z,86.76
2019-02-21T05:24:54.242Z,86.90
2019-02-21T05:25:54.264Z,86.79
2019-02-21T05:26:54.217Z,87.07
2019-02-21T05:27:54.218Z,87.10
2019-02-21T05:28:54.201Z,87.17
2019-02-21T05:29:54.193Z,87.00
2019-02-21T05:30:54.176Z,87.27
2019-02-21T05:31:54.353Z,86.76
2019-02-21T05:32:54.149Z,86.86
2019-02-21T05:33:54.143Z,86.86
2019-02-21T05:34:54.133Z,86.76
2019-02-21T05:35:54.131Z,86.76
2019-02-21T05:36:54.111Z,86.65
2019-02-21T05:37:54.160Z,86.86
2019-02-21T05:38:54.086Z,87.07
2019-02-21T05:39:54.077Z,87.27
2019-02-21T05:40:54.073Z,86.86
2019-02-21T05:41:54.055Z,87.17
2019-02-21T05:42:54.101Z,86.76
2019-02-21T05:43:54.118Z,87.07
2019-02-21T05:44:54.023Z,87.37
2019-02-21T05:45:54.011Z,86.76
2019-02-21T05:46:53.996Z,87.17
2019-02-21T05:47:53.986Z,87.07
2019-02-21T05:48:53.980Z,87.27
2019-02-21T05:49:54.012Z,87.48
2019-02-21T05:50:53.959Z,86.96
2019-02-21T05:51:54.019Z,86.76
2019-02-21T05:52:53.937Z,87.17
2019-02-21T05:53:53.936Z,86.96
2019-02-21T05:54:53.983Z,87.17
2019-02-21T05:55:53.954Z,87.17
2019-02-21T05:56:53.892Z,86.76
2019-02-21T05:57:53.887Z,87.07
2019-02-21T05:58:53.870Z,87.02
2019-02-21T05:59:53.905Z,86.86
2019-02-21T06:00:53.848Z,87.07
2019-02-21T06:01:53.902Z,86.96
2019-02-21T06:02:53.898Z,86.82
2019-02-21T06:03:53.814Z,86.92
2019-02-21T06:04:53.802Z,86.92
2019-02-21T06:05:53.824Z,87.02
2019-02-21T06:06:53.786Z,86.92
2019-02-21T06:07:53.817Z,86.92
2019-02-21T06:08:53.758Z,87.13
2019-02-21T06:09:53.746Z,87.02
2019-02-21T06:10:53.736Z,87.13
2019-02-21T06:11:53.824Z,86.68
2019-02-21T06:12:53.722Z,87.08
2019-02-21T06:13:53.745Z,86.98
2019-02-21T06:14:53.694Z,86.78
2019-02-21T06:15:53.687Z,86.74
2019-02-21T06:16:53.668Z,86.22
2019-02-21T06:17:53.673Z,86.43
2019-02-21T06:18:53.645Z,86.12
2019-02-21T06:19:53.691Z,86.57
2019-02-21T06:20:53.637Z,86.47
2019-02-21T06:21:53.621Z,86.26
2019-02-21T06:22:53.647Z,86.43
2019-02-21T06:23:53.598Z,86.32
2019-02-21T06:24:53.587Z,86.36
2019-02-21T06:25:58.010Z,86.53
2019-02-21T06:26:53.565Z,86.53
2019-02-21T06:27:53.570Z,86.74
2019-02-21T06:28:53.864Z,86.63
2019-02-21T06:29:53.533Z,86.84
2019-02-21T06:30:53.519Z,86.84
2019-02-21T06:31:53.804Z,86.53
2019-02-21T06:33:04.166Z,86.74
2019-02-21T06:33:54.484Z,86.43
2019-02-21T06:34:53.476Z,86.53
2019-02-21T06:35:53.465Z,86.63
2019-02-21T06:36:53.450Z,87.15
2019-02-21T06:37:53.486Z,86.94
2019-02-21T06:38:53.424Z,86.63
2019-02-21T06:39:53.459Z,86.74
2019-02-21T06:40:53.408Z,86.29
2019-02-21T06:41:59.572Z,86.43
2019-02-21T06:42:54.433Z,86.49
2019-02-21T06:43:53.394Z,86.84
2019-02-21T06:44:53.358Z,86.70
2019-02-21T06:45:53.358Z,86.70
2019-02-21T06:46:53.344Z,86.53
2019-02-21T06:47:53.449Z,86.39
2019-02-21T06:48:53.364Z,86.32
2019-02-21T06:49:53.314Z,86.29
2019-02-21T06:50:53.314Z,86.08
2019-02-21T06:51:53.280Z,86.29
2019-02-21T06:52:53.273Z,86.08
2019-02-21T06:53:53.350Z,86.29
2019-02-21T06:54:53.289Z,86.08
2019-02-21T06:55:53.239Z,85.73
2019-02-21T06:56:53.227Z,85.73
2019-02-21T06:57:53.230Z,85.83
2019-02-21T06:58:53.209Z,85.63
2019-02-21T06:59:53.194Z,85.63
2019-02-21T07:00:53.254Z,85.31
2019-02-21T07:01:53.169Z,85.94
2019-02-21T07:02:54.355Z,85.52
2019-02-21T07:03:53.147Z,85.73
2019-02-21T07:04:53.143Z,85.63
2019-02-21T07:05:53.130Z,85.63
2019-02-21T07:06:53.153Z,85.42
2019-02-21T07:07:53.157Z,85.22
2019-02-21T07:08:54.193Z,84.66
2019-02-21T07:09:53.082Z,84.77
2019-02-21T07:10:53.084Z,84.66
2019-02-21T07:11:53.063Z,84.66
2019-02-21T07:12:53.081Z,84.35
2019-02-21T07:13:53.082Z,84.35
2019-02-21T07:14:53.056Z,84.87
2019-02-21T07:15:53.014Z,84.87
2019-02-21T07:16:53.058Z,84.45
2019-02-21T07:17:52.992Z,84.77
2019-02-21T07:18:53.040Z,84.87
2019-02-21T07:19:53.001Z,84.87
2019-02-21T07:20:52.969Z,84.56
2019-02-21T07:21:52.957Z,84.56
2019-02-21T07:22:52.959Z,84.97
2019-02-21T07:23:52.929Z,84.56
2019-02-21T07:24:54.077Z,84.87
2019-02-21T07:25:52.910Z,84.66
2019-02-21T07:26:52.904Z,84.87
2019-02-21T07:27:52.887Z,84.97
2019-02-21T07:28:52.874Z,84.77
2019-02-21T07:29:52.881Z,85.17
2019-02-21T07:30:52.951Z,84.87
2019-02-21T07:31:52.841Z,84.56
2019-02-21T07:32:52.829Z,84.56
2019-02-21T07:33:52.835Z,84.45
2019-02-21T07:34:52.811Z,85.03
2019-02-21T07:35:52.807Z,84.83
2019-02-21T07:36:52.902Z,84.62
2019-02-21T07:37:52.786Z,84.52
2019-02-21T07:39:03.526Z,84.62
2019-02-21T07:39:53.757Z,84.72
2019-02-21T07:40:52.789Z,84.31
2019-02-21T07:41:52.752Z,84.42
2019-02-21T07:42:52.776Z,84.21
2019-02-21T07:43:52.720Z,83.55
2019-02-21T07:44:52.748Z,84.27
2019-02-21T07:45:52.755Z,83.76
2019-02-21T07:46:53.503Z,84.17
2019-02-21T07:47:52.660Z,83.86
2019-02-21T07:48:52.724Z,84.17
2019-02-21T07:49:52.648Z,83.86
2019-02-21T07:50:52.631Z,83.55
2019-02-21T07:51:52.635Z,83.76
2019-02-21T07:53:01.959Z,83.51
2019-02-21T07:53:53.648Z,83.20
2019-02-21T07:55:01.275Z,83.20
2019-02-21T07:55:55.763Z,82.69
2019-02-21T07:56:52.567Z,83.11
2019-02-21T07:57:52.547Z,82.79
2019-02-21T07:58:52.540Z,82.69
2019-02-21T07:59:52.614Z,82.90
2019-02-21T08:00:54.090Z,81.83
2019-02-21T08:01:52.507Z,82.14
2019-02-21T08:02:52.494Z,81.93
2019-02-21T08:03:52.487Z,81.52
2019-02-21T08:04:52.472Z,81.42
2019-02-21T08:05:52.625Z,81.42
2019-02-21T08:06:55.395Z,81.21
2019-02-21T08:07:52.460Z,81.18
2019-02-21T08:08:52.447Z,81.07
2019-02-21T08:09:52.418Z,81.38
2019-02-21T08:10:52.407Z,81.18
2019-02-21T08:11:52.443Z,81.28
2019-02-21T08:12:53.704Z,81.18
2019-02-21T08:13:52.542Z,81.59
2019-02-21T08:14:52.453Z,81.79
2019-02-21T08:15:52.368Z,81.79
2019-02-21T08:16:52.389Z,82.10
2019-02-21T08:17:52.394Z,81.79
2019-02-21T08:18:52.331Z,82.86
2019-02-21T08:19:52.305Z,82.41
2019-02-21T08:20:52.329Z,82.20
2019-02-21T08:21:52.365Z,81.79
2019-02-21T08:22:52.308Z,81.83
2019-02-21T08:23:52.307Z,81.18
2019-02-21T08:24:52.247Z,81.59
2019-02-21T08:25:52.285Z,81.48
2019-02-21T08:26:52.225Z,81.38
2019-02-21T08:27:52.219Z,81.59
2019-02-21T08:28:52.204Z,81.79
2019-02-21T08:29:52.247Z,81.65
2019-02-21T08:30:52.184Z,81.79
2019-02-21T08:31:52.211Z,81.69
2019-02-21T08:32:52.161Z,81.69
2019-02-21T08:33:58.539Z,81.48
2019-02-21T08:34:53.165Z,81.24
2019-02-21T08:35:54.140Z,81.34
2019-02-21T08:36:52.122Z,81.55
2019-02-21T08:37:52.141Z,81.45
2019-02-21T08:38:52.096Z,81.55
2019-02-21T08:39:52.080Z,81.76
2019-02-21T08:40:53.344Z,81.00
2019-02-21T08:41:52.061Z,80.58
2019-02-21T08:42:52.045Z,80.58
2019-02-21T08:43:52.095Z,80.18
2019-02-21T08:44:52.026Z,80.18
2019-02-21T08:45:52.012Z,80.28
2019-02-21T08:46:53.534Z,80.18
2019-02-21T08:47:51.991Z,80.14
2019-02-21T08:48:51.984Z,79.87
2019-02-21T08:49:51.990Z,79.73
2019-02-21T08:50:51.982Z,79.83
2019-02-21T08:51:51.959Z,79.83
2019-02-21T08:52:51.980Z,79.73
2019-02-21T08:53:51.924Z,79.90
2019-02-21T08:54:59.789Z,79.08
2019-02-21T08:55:52.950Z,79.28
2019-02-21T08:56:51.891Z,79.49
2019-02-21T08:57:51.879Z,79.08
2019-02-21T08:58:51.925Z,79.45
2019-02-21T08:59:51.857Z,79.35
2019-02-21T09:00:54.292Z,79.24
2019-02-21T09:01:51.868Z,78.63
2019-02-21T09:02:51.831Z,78.19
2019-02-21T09:03:51.834Z,78.70
2019-02-21T09:04:51.835Z,78.28
2019-02-21T09:05:51.837Z,77.64
2019-02-21T09:06:51.781Z,77.94
2019-02-21T09:07:51.827Z,76.92
2019-02-21T09:08:51.762Z,77.43
2019-02-21T09:09:51.747Z,76.81
2019-02-21T09:10:51.787Z,76.68
2019-02-21T09:11:53.779Z,76.17
2019-02-21T09:12:51.714Z,76.17
2019-02-21T09:13:51.741Z,75.31
2019-02-21T09:14:51.692Z,74.90
2019-02-21T09:15:51.682Z,74.80
2019-02-21T09:16:51.707Z,75.10
2019-02-21T09:17:53.979Z,74.97
2019-02-21T09:18:51.652Z,75.17
2019-02-21T09:19:51.699Z,74.97
2019-02-21T09:20:51.626Z,75.07
2019-02-21T09:21:53.563Z,74.97
2019-02-21T09:22:51.635Z,74.66
2019-02-21T09:23:51.596Z,74.15
2019-02-21T09:24:51.585Z,74.35
2019-02-21T09:25:51.601Z,74.52
2019-02-21T09:26:51.573Z,73.91
2019-02-21T09:27:51.549Z,74.05
2019-02-21T09:28:51.591Z,73.71
2019-02-21T09:29:51.525Z,73.91
2019-02-21T09:30:51.542Z,74.32
2019-02-21T09:31:51.567Z,74.32
2019-02-21T09:32:51.505Z,74.32
2019-02-21T09:33:51.513Z,74.73
2019-02-21T09:34:51.510Z,74.39
2019-02-21T09:35:51.458Z,74.43
2019-02-21T09:36:51.448Z,74.11
2019-02-21T09:37:51.462Z,74.11
2019-02-21T09:38:51.439Z,74.32
2019-02-21T09:39:51.445Z,74.11
2019-02-21T09:40:51.432Z,73.91
2019-02-21T09:41:51.391Z,74.22
2019-02-21T09:42:51.388Z,74.11
2019-02-21T09:43:51.372Z,74.49
2019-02-21T09:44:51.376Z,73.74
2019-02-21T09:45:51.359Z,73.94
2019-02-21T09:46:51.528Z,73.74
2019-02-21T09:47:51.327Z,73.50
2019-02-21T09:48:51.313Z,73.10
2019-02-21T09:49:51.303Z,73.71
2019-02-21T09:50:51.292Z,73.36
2019-02-21T09:51:51.289Z,73.36
2019-02-21T09:52:51.317Z,72.34
2019-02-21T09:53:51.258Z,72.24
2019-02-21T09:54:51.260Z,72.21
2019-02-21T09:55:51.234Z,71.19
2019-02-21T09:56:53.067Z,71.29
2019-02-21T09:57:51.246Z,70.65
2019-02-21T09:58:51.241Z,71.26
2019-02-21T09:59:51.198Z,70.51
2019-02-21T10:00:51.177Z,71.43
2019-02-21T10:01:51.169Z,71.06
2019-02-21T10:02:54.333Z,70.65
2019-02-21T10:03:52.184Z,71.33
2019-02-21T10:04:51.134Z,71.23
2019-02-21T10:05:51.150Z,71.12
2019-02-21T10:06:51.110Z,68.88
2019-02-21T10:07:51.103Z,69.90
2019-02-21T10:08:51.111Z,70.34
2019-02-21T10:09:51.124Z,70.75
2019-02-21T10:10:51.066Z,70.65
2019-02-21T10:11:51.061Z,70.82
2019-02-21T10:12:51.045Z,70.61
2019-02-21T10:13:51.034Z,70.72
2019-02-21T10:14:51.049Z,70.31
2019-02-21T10:15:51.053Z,70.31
2019-02-21T10:16:51.007Z,69.80
2019-02-21T10:17:51.078Z,70.21
2019-02-21T10:18:50.981Z,70.65
2019-02-21T10:19:50.964Z,70.41
2019-02-21T10:20:51.000Z,70.75
2019-02-21T10:21:50.990Z,68.81
2019-02-21T10:22:50.931Z,70.00
2019-02-21T10:23:50.920Z,68.78
2019-02-21T10:24:50.928Z,69.80
2019-02-21T10:25:50.896Z,69.39
2019-02-21T10:26:50.919Z,69.09
2019-02-21T10:27:50.909Z,68.61
2019-02-21T10:28:50.867Z,69.93
2019-02-21T10:29:50.858Z,69.80
2019-02-21T10:30:50.844Z,68.68
2019-02-21T10:31:50.861Z,68.98
2019-02-21T10:32:50.877Z,70.31
2019-02-21T10:33:50.852Z,69.39
2019-02-21T10:34:52.970Z,68.75
2019-02-21T10:35:50.785Z,68.82
2019-02-21T10:36:50.784Z,69.06
2019-02-21T10:37:50.770Z,68.13
2019-02-21T10:38:50.756Z,67.60
2019-02-21T10:39:50.819Z,68.01
2019-02-21T10:40:50.732Z,67.46
2019-02-21T10:41:50.717Z,66.92
2019-02-21T10:42:50.707Z,66.00
2019-02-21T10:43:50.701Z,65.57
2019-02-21T10:44:50.685Z,65.44
2019-02-21T10:45:50.771Z,64.83
2019-02-21T10:46:50.661Z,64.96
2019-02-21T10:47:50.652Z,64.76
2019-02-21T10:48:50.675Z,64.76
2019-02-21T10:49:50.632Z,65.30
2019-02-21T10:50:50.620Z,65.16
2019-02-21T10:51:50.689Z,65.16
2019-02-21T10:52:50.608Z,65.91
2019-02-21T10:53:50.589Z,64.79
2019-02-21T10:54:50.574Z,65.19
2019-02-21T10:55:50.566Z,66.44
2019-02-21T10:56:50.555Z,66.24
2019-02-21T10:57:50.598Z,65.73
2019-02-21T10:58:50.557Z,65.66
2019-02-21T10:59:50.519Z,66.68
2019-02-21T11:00:50.509Z,66.38
2019-02-21T11:01:50.502Z,66.78
2019-02-21T11:02:50.533Z,66.88
2019-02-21T11:03:50.519Z,67.08
2019-02-21T11:04:54.881Z,66.58
2019-02-21T11:05:50.453Z,66.65
2019-02-21T11:06:50.452Z,66.65
2019-02-21T11:07:50.440Z,66.72
2019-02-21T11:08:50.535Z,66.31
2019-02-21T11:09:50.557Z,65.39
2019-02-21T11:10:50.401Z,65.03
2019-02-21T11:11:50.392Z,64.65
2019-02-21T11:12:50.396Z,64.12
2019-02-21T11:13:50.365Z,63.91
2019-02-21T11:14:50.352Z,63.81
2019-02-21T11:15:50.462Z,64.42
2019-02-21T11:16:50.335Z,63.10
2019-02-21T11:17:50.405Z,63.13
2019-02-21T11:18:50.311Z,64.25
2019-02-21T11:19:50.306Z,64.25
2019-02-21T11:20:50.322Z,64.25
2019-02-21T11:21:50.304Z,63.84
2019-02-21T11:22:50.315Z,64.15
2019-02-21T11:23:50.254Z,63.84
2019-02-21T11:24:50.242Z,64.04
2019-02-21T11:25:50.231Z,63.54
2019-02-21T11:26:50.268Z,63.94
2019-02-21T11:27:50.265Z,64.86
2019-02-21T11:28:50.196Z,65.16
2019-02-21T11:29:50.203Z,64.35
2019-02-21T11:30:50.178Z,65.06
2019-02-21T11:31:50.165Z,64.35
2019-02-21T11:32:50.311Z,64.69
2019-02-21T11:33:50.176Z,65.19
2019-02-21T11:34:50.136Z,64.79
2019-02-21T11:35:50.123Z,65.02
2019-02-21T11:36:50.116Z,66.04
2019-02-21T11:37:50.101Z,66.44
2019-02-21T11:38:50.092Z,66.65
2019-02-21T11:39:50.118Z,67.66
2019-02-21T11:40:50.103Z,66.24
2019-02-21T11:41:50.083Z,66.65
2019-02-21T11:42:50.041Z,65.53
2019-02-21T11:43:50.035Z,65.33
2019-02-21T11:44:50.030Z,64.48
2019-02-21T11:45:53.869Z,64.28
2019-02-21T11:46:51.094Z,64.28
2019-02-21T11:47:50.002Z,64.79
2019-02-21T11:48:49.983Z,64.38
2019-02-21T11:49:49.979Z,63.87
2019-02-21T11:50:49.957Z,62.68
2019-02-21T11:51:49.993Z,62.88
2019-02-21T11:52:49.937Z,63.80
2019-02-21T11:53:49.928Z,64.23
2019-02-21T11:54:49.961Z,63.93
2019-02-21T11:55:49.952Z,64.51
2019-02-21T11:56:49.888Z,64.28
2019-02-21T11:57:49.953Z,63.46
2019-02-21T11:58:49.867Z,63.06
2019-02-21T11:59:49.853Z,63.36
2019-02-21T12:00:49.841Z,62.85
2019-02-21T12:01:49.844Z,63.16
2019-02-21T12:02:49.822Z,62.82
2019-02-21T12:03:50.136Z,62.11
2019-02-21T12:04:49.796Z,61.98
2019-02-21T12:05:49.790Z,62.21
2019-02-21T12:06:49.776Z,61.78
2019-02-21T12:07:49.766Z,62.11
2019-02-21T12:08:49.753Z,60.97
2019-02-21T12:09:49.840Z,61.24
2019-02-21T12:10:51.014Z,61.24
2019-02-21T12:11:49.718Z,61.44
2019-02-21T12:12:49.759Z,61.95
2019-02-21T12:13:49.699Z,61.21
2019-02-21T12:14:49.685Z,59.39
2019-02-21T12:15:49.751Z,59.39
2019-02-21T12:16:49.668Z,59.69
2019-02-21T12:17:49.665Z,59.59
2019-02-21T12:18:49.643Z,59.39
2019-02-21T12:19:49.629Z,59.99
2019-02-21T12:20:49.625Z,60.07
2019-02-21T12:21:58.583Z,60.44
2019-02-21T12:22:50.618Z,59.43
2019-02-21T12:23:49.595Z,59.43
2019-02-21T12:24:49.576Z,59.94
2019-02-21T12:25:49.571Z,58.34
2019-02-21T12:26:49.574Z,58.75
2019-02-21T12:27:49.586Z,59.53
2019-02-21T12:28:49.619Z,59.50
2019-02-21T12:29:49.522Z,58.09
2019-02-21T12:30:49.518Z,57.88
2019-02-21T12:31:49.512Z,57.37
2019-02-21T12:32:49.485Z,57.98
2019-02-21T12:33:49.525Z,59.30
2019-02-21T12:34:49.465Z,58.62
2019-02-21T12:35:49.498Z,58.65
2019-02-21T12:36:49.444Z,59.23
2019-02-21T12:37:49.431Z,57.88
2019-02-21T12:38:49.424Z,58.59
2019-02-21T12:39:49.456Z,57.96
2019-02-21T12:40:49.400Z,57.50
2019-02-21T12:41:49.459Z,56.15
2019-02-21T12:42:49.380Z,56.02
2019-02-21T12:43:49.365Z,56.15
2019-02-21T12:44:49.350Z,55.93
2019-02-21T12:45:49.400Z,55.60
2019-02-21T12:46:49.337Z,53.75
2019-02-21T12:47:53.377Z,52.84
2019-02-21T12:48:49.319Z,52.82
2019-02-21T12:49:49.300Z,53.98
2019-02-21T12:50:49.287Z,54.36
2019-02-21T12:51:49.306Z,53.67
2019-02-21T12:52:49.267Z,52.44